Time;durP1;ratioP1;P1;durP2;ratioP2;P2;SDS_P1;SDS_P2;PMS_P1;PMS_P2;Temp;Humidity;BMP_temperature;BMP_pressure;BME280_temperature;BME280_humidity;BME280_pressure;Samples;Min_cycle;Max_cycle;Signal;HPM_P1;HPM_P2
2023/01/14 00:01:28;;;;;;;11.00;2.40;;;;;;;4.84;91.28;98890.34;109258;1253;73163;-72
2023/01/14 00:04:16;;;;;;;7.00;2.00;;;;;;;4.84;91.54;98893.65;109413;1252;67760;-72
2023/01/14 00:07:04;;;;;;;11.20;2.60;;;;;;;4.84;91.42;98896.96;109513;1252;71620;-74
2023/01/14 00:09:52;;;;;;;10.80;2.40;;;;;;;4.85;91.24;98900.27;109536;1256;57616;-73
2023/01/14 00:12:40;;;;;;;8.30;2.00;;;;;;;4.87;91.34;98891.19;109557;1252;59014;-73
2023/01/14 00:15:28;;;;;;;9.70;2.10;;;;;;;4.90;91.44;98891.45;107255;1252;1002910;-72
2023/01/14 00:18:15;;;;;;;11.20;2.50;;;;;;;4.93;91.06;98892.81;109589;1252;66794;-73
2023/01/14 00:21:13;;;;;;;8.00;2.10;;;;;;;4.98;91.08;98888.25;109511;1252;72473;-76
2023/01/14 00:24:02;;;;;;;8.70;2.10;;;;;;;5.02;90.73;98892.36;109462;1252;59832;-72
2023/01/14 00:26:56;;;;;;;9.40;2.10;;;;;;;5.06;90.32;98890.13;109559;1252;58453;-73
2023/01/14 00:29:44;;;;;;;9.70;2.30;;;;;;;5.09;89.84;98893.55;109461;1252;72884;-73
2023/01/14 00:32:31;;;;;;;8.00;2.00;;;;;;;5.13;89.80;98884.36;109516;1253;67696;-73
2023/01/14 00:35:20;;;;;;;9.00;1.90;;;;;;;5.15;89.44;98889.13;109547;1253;71099;-72
2023/01/14 00:38:08;;;;;;;7.10;1.90;;;;;;;5.18;89.23;98890.67;109361;1253;59944;-74
2023/01/14 00:41:15;;;;;;;10.10;1.70;;;;;;;5.21;89.21;98887.83;109476;1253;60554;-74
2023/01/14 00:44:04;;;;;;;8.10;1.90;;;;;;;5.24;89.09;98884.55;109466;1257;74010;-73
2023/01/14 00:46:53;;;;;;;7.90;1.80;;;;;;;5.28;88.45;98892.91;109551;1252;66532;-72
2023/01/14 00:49:43;;;;;;;8.00;2.20;;;;;;;5.28;88.32;98893.93;109252;1252;72454;-73
2023/01/14 00:52:33;;;;;;;10.50;2.10;;;;;;;5.30;88.27;98893.64;109542;1253;58587;-72
2023/01/14 00:55:21;;;;;;;6.80;1.70;;;;;;;5.29;88.36;98891.77;109555;1253;60114;-74
2023/01/14 00:58:09;;;;;;;7.70;2.10;;;;;;;5.28;88.24;98885.84;109530;1253;74403;-73
2023/01/14 01:00:57;;;;;;;8.80;2.00;;;;;;;5.31;88.57;98895.66;109548;1253;68043;-72
2023/01/14 01:03:48;;;;;;;8.30;2.00;;;;;;;5.27;88.30;98889.30;109525;1253;72510;-71
2023/01/14 01:06:36;;;;;;;7.00;1.80;;;;;;;5.34;88.40;98894.08;109530;1252;59143;-73
2023/01/14 01:09:24;;;;;;;8.60;2.30;;;;;;;5.33;88.28;98897.98;109571;1252;60293;-73
2023/01/14 01:12:12;;;;;;;7.60;1.60;;;;;;;5.32;88.40;98903.54;109520;1252;72768;-72
2023/01/14 01:14:59;;;;;;;8.30;1.90;;;;;;;5.29;88.62;98904.56;108822;1252;1002080;-73
2023/01/14 01:17:50;;;;;;;8.00;1.60;;;;;;;5.31;88.66;98905.55;109574;1252;73271;-74
2023/01/14 01:20:38;;;;;;;10.30;2.20;;;;;;;5.30;88.40;98900.66;109464;1252;59633;-73
2023/01/14 01:23:26;;;;;;;6.80;1.60;;;;;;;5.31;88.46;98900.61;108736;1253;1003034;-73
2023/01/14 01:26:23;;;;;;;11.00;2.10;;;;;;;5.31;88.66;98899.04;109519;1252;72890;-73
2023/01/14 01:29:11;;;;;;;8.90;2.60;;;;;;;5.31;88.26;98905.15;109479;1252;66813;-73
2023/01/14 01:31:59;;;;;;;9.80;2.00;;;;;;;5.29;88.74;98903.88;109500;1252;73335;-75
2023/01/14 01:34:47;;;;;;;8.60;2.30;;;;;;;5.29;88.60;98901.45;109521;1253;58553;-73
2023/01/14 01:37:35;;;;;;;10.10;2.00;;;;;;;5.30;88.85;98898.73;109503;1253;61159;-73
2023/01/14 01:40:23;;;;;;;9.20;1.90;;;;;;;5.31;88.55;98902.55;109605;1252;74246;-72
2023/01/14 01:43:12;;;;;;;8.60;2.10;;;;;;;5.30;88.31;98904.19;109583;1253;68031;-68
2023/01/14 01:46:00;;;;;;;6.70;1.90;;;;;;;5.28;88.33;98902.56;109615;1251;72473;-69
2023/01/14 01:48:48;;;;;;;6.80;1.80;;;;;;;5.26;88.41;98904.96;109602;1251;60106;-72
2023/01/14 01:51:47;;;;;;;9.40;1.90;;;;;;;5.23;88.65;98908.19;109639;1251;61512;-69
2023/01/14 01:54:45;;;;;;;7.30;1.70;;;;;;;5.16;89.08;98904.70;109556;1251;73026;-69
2023/01/14 01:57:33;;;;;;;6.50;1.70;;;;;;;5.15;89.68;98904.46;109669;1251;66547;-69
2023/01/14 02:00:26;;;;;;;10.80;2.10;;;;;;;5.08;90.06;98907.19;109566;1251;70641;-72
2023/01/14 02:03:25;;;;;;;8.20;2.00;;;;;;;5.03;90.18;98908.96;109542;1251;58504;-71
2023/01/14 02:06:15;;;;;;;8.30;1.90;;;;;;;4.98;90.50;98905.84;109650;1251;60032;-70
2023/01/14 02:09:03;;;;;;;7.70;1.90;;;;;;;4.96;90.64;98911.42;109603;1251;73222;-71
2023/01/14 02:12:26;;;;;;;8.20;1.80;;;;;;;4.93;90.71;98909.32;109627;1251;67923;-70
2023/01/14 02:15:58;;;;;;;6.90;1.70;;;;;;;4.94;90.93;98920.02;109508;1251;72390;-69
2023/01/14 02:19:08;;;;;;;9.60;1.40;;;;;;;4.90;91.06;98915.39;109594;1251;57953;-70
2023/01/14 02:22:23;;;;;;;8.40;1.70;;;;;;;4.87;91.30;98915.39;109514;1251;60982;-70
2023/01/14 02:25:23;;;;;;;8.00;1.80;;;;;;;4.86;91.50;98913.39;109660;1251;72616;-69
2023/01/14 02:28:47;;;;;;;8.80;2.10;;;;;;;4.85;91.53;98910.78;109614;1251;67899;-71
2023/01/14 02:31:55;;;;;;;11.00;2.00;;;;;;;4.83;91.56;98914.83;109492;1254;73929;-70
2023/01/14 02:35:08;;;;;;;6.00;1.80;;;;;;;4.82;91.43;98911.38;109554;1251;58753;-72
2023/01/14 02:38:34;;;;;;;6.40;1.40;;;;;;;4.83;91.68;98917.13;109522;1251;60257;-72
2023/01/14 02:45:05;;;;;;;7.40;1.60;;;;;;;4.90;91.32;98921.50;109563;1251;67021;-72
2023/01/14 02:47:53;;;;;;;8.80;2.00;;;;;;;4.94;91.22;98927.38;109465;1251;72510;-72
2023/01/14 02:50:42;;;;;;;7.40;1.80;;;;;;;4.99;90.97;98924.89;109504;1251;58147;-71
2023/01/14 02:53:31;;;;;;;6.60;1.50;;;;;;;5.03;90.83;98929.57;109634;1251;60190;-72
2023/01/14 02:56:20;;;;;;;7.80;1.40;;;;;;;5.07;90.95;98927.98;109440;1251;202810;-72
2023/01/14 02:59:41;;;;;;;9.00;2.70;;;;;;;5.10;90.76;98934.10;109629;1251;69568;-72
2023/01/14 03:02:44;;;;;;;7.10;1.50;;;;;;;5.14;90.71;98938.98;109583;1251;73453;-73
2023/01/14 03:06:10;;;;;;;10.00;2.00;;;;;;;5.18;90.94;98942.91;109611;1251;58028;-72
2023/01/14 03:09:19;;;;;;;6.50;1.50;;;;;;;5.17;91.02;98941.20;109639;1251;60512;-71
2023/01/14 03:12:11;;;;;;;8.90;1.60;;;;;;;5.19;91.50;98948.98;109607;1251;72945;-71
2023/01/14 03:15:09;;;;;;;7.70;2.00;;;;;;;5.20;91.81;98953.48;109590;1251;68964;-71
2023/01/14 03:18:26;;;;;;;8.50;1.80;;;;;;;5.19;92.25;98958.29;109578;1251;73860;-73
2023/01/14 03:21:22;;;;;;;6.40;1.50;;;;;;;5.18;92.60;98953.92;109622;1251;58178;-71
2023/01/14 03:24:16;;;;;;;7.40;1.60;;;;;;;5.19;92.97;98959.16;109418;1251;59486;-71
2023/01/14 03:27:09;;;;;;;8.40;2.10;;;;;;;5.18;93.42;98962.73;109496;1251;72675;-71
2023/01/14 03:30:05;;;;;;;8.30;1.90;;;;;;;5.19;93.29;98967.77;109386;1251;67699;-72
2023/01/14 03:33:00;;;;;;;7.10;1.90;;;;;;;5.18;93.79;98972.41;109339;1256;71409;-72
2023/01/14 03:35:51;;;;;;;6.00;1.60;;;;;;;5.18;93.97;98971.33;109492;1251;59705;-72
2023/01/14 03:38:55;;;;;;;6.90;1.60;;;;;;;5.18;94.13;98971.91;109657;1251;61507;-70
2023/01/14 03:44:57;;;;;;;6.50;1.70;;;;;;;5.14;94.56;98972.71;109575;1253;68720;-71
2023/01/14 03:47:46;;;;;;;6.80;1.80;;;;;;;5.14;94.68;98977.46;109402;1253;73148;-72
2023/01/14 03:51:01;;;;;;;6.10;1.60;;;;;;;5.15;94.85;98982.49;109560;1253;58737;-71
2023/01/14 03:54:02;;;;;;;6.80;1.70;;;;;;;5.13;95.00;98982.14;109485;1253;61476;-72
2023/01/14 03:57:15;;;;;;;6.20;1.60;;;;;;;5.13;94.91;98980.86;109363;1252;71501;-72
2023/01/14 04:00:28;;;;;;;6.70;1.50;;;;;;;5.12;95.40;98981.63;109511;1252;68102;-72
2023/01/14 04:03:17;;;;;;;6.70;1.80;;;;;;;5.14;95.07;98985.35;109495;1253;72170;-72
2023/01/14 04:06:05;;;;;;;6.40;1.60;;;;;;;5.15;95.39;98984.09;108790;1253;1002212;-78
2023/01/14 04:08:53;;;;;;;7.00;1.70;;;;;;;5.15;94.97;98985.48;107276;1253;1002816;-71
2023/01/14 04:11:41;;;;;;;6.20;1.80;;;;;;;5.17;94.81;98989.21;109501;1253;74228;-70
2023/01/14 04:17:37;;;;;;;7.50;1.80;;;;;;;5.19;94.44;98995.23;109514;1253;72853;-69
2023/01/14 04:20:25;;;;;;;5.80;1.20;;;;;;;5.21;94.18;98993.34;109524;1253;59448;-70
2023/01/14 04:23:13;;;;;;;6.60;1.80;;;;;;;5.21;93.92;98988.71;109528;1253;61001;-69
2023/01/14 04:26:01;;;;;;;7.20;1.50;;;;;;;5.23;94.03;98995.30;109550;1253;74059;-71
2023/01/14 04:28:48;;;;;;;6.70;1.20;;;;;;;5.25;93.99;98996.35;109562;1253;66820;-71
2023/01/14 04:31:36;;;;;;;6.90;2.20;;;;;;;5.24;94.02;98998.37;109501;1253;73948;-70
2023/01/14 04:34:24;;;;;;;6.50;1.70;;;;;;;5.24;93.87;99008.87;109483;1253;60811;-71
2023/01/14 04:37:12;;;;;;;6.30;1.80;;;;;;;5.24;93.86;99002.21;109547;1252;59480;-71
2023/01/14 04:39:59;;;;;;;6.40;1.40;;;;;;;5.26;93.79;99007.73;109520;1253;71820;-70
2023/01/14 04:42:49;;;;;;;6.90;1.80;;;;;;;5.27;93.31;99012.77;109549;1253;68624;-70
2023/01/14 04:45:37;;;;;;;6.60;1.60;;;;;;;5.28;93.07;99010.56;109270;1253;71528;-69
2023/01/14 04:48:25;;;;;;;7.90;1.70;;;;;;;5.30;92.78;99010.77;109533;1253;59551;-73
2023/01/14 04:51:13;;;;;;;5.50;1.50;;;;;;;5.32;92.26;99021.21;109560;1253;59045;-72
2023/01/14 04:54:01;;;;;;;7.90;1.80;;;;;;;5.33;92.50;99018.11;109518;1253;71883;-72
2023/01/14 04:56:49;;;;;;;5.90;1.80;;;;;;;5.34;91.96;99024.52;109582;1253;69072;-70
2023/01/14 04:59:37;;;;;;;9.90;1.70;;;;;;;5.39;91.48;99039.65;109525;1253;73452;-69
2023/01/14 05:02:25;;;;;;;6.90;1.60;;;;;;;5.41;91.50;99043.39;109525;1257;60743;-71
2023/01/14 05:05:12;;;;;;;6.00;1.50;;;;;;;5.41;90.97;99051.14;109520;1253;60082;-71
2023/01/14 05:08:02;;;;;;;7.60;1.80;;;;;;;5.37;90.82;99047.02;109553;1253;73142;-72
2023/01/14 05:10:50;;;;;;;6.60;1.60;;;;;;;5.42;90.88;99057.77;109459;1257;66305;-73
2023/01/14 05:13:38;;;;;;;8.00;1.50;;;;;;;5.43;91.25;99056.25;109300;1253;73642;-73
2023/01/14 05:16:27;;;;;;;6.70;1.80;;;;;;;5.43;91.06;99057.67;109542;1253;57325;-72
2023/01/14 05:19:15;;;;;;;5.50;1.50;;;;;;;5.41;91.11;99059.94;109538;1252;58736;-73
2023/01/14 05:22:03;;;;;;;6.30;1.70;;;;;;;5.38;90.83;99062.77;108766;1253;1002462;-71
2023/01/14 05:24:51;;;;;;;10.70;1.90;;;;;;;5.40;90.38;99068.13;109570;1252;68172;-71
2023/01/14 05:27:39;;;;;;;9.40;2.00;;;;;;;5.39;89.88;99067.11;109364;1253;72467;-75
2023/01/14 05:30:28;;;;;;;8.10;1.40;;;;;;;5.36;89.21;99073.34;109536;1253;57960;-74
2023/01/14 05:33:15;;;;;;;7.20;1.30;;;;;;;5.32;88.36;99072.71;109440;1253;58957;-74
2023/01/14 05:36:05;;;;;;;8.60;1.70;;;;;;;5.28;88.32;99079.81;109470;1252;73135;-71
2023/01/14 05:38:52;;;;;;;6.40;1.70;;;;;;;5.26;87.75;99088.60;109537;1252;68022;-72
2023/01/14 05:45:37;;;;;;;5.50;1.60;;;;;;;5.26;87.72;99095.51;109441;1252;72545;-74
2023/01/14 05:48:11;;;;;;;12.20;2.00;;;;;;;5.23;87.90;99110.43;109382;1252;61402;-71
2023/01/14 05:51:02;;;;;;;9.60;1.70;;;;;;;5.22;87.79;99113.67;109522;1253;72990;-70
2023/01/14 05:53:49;;;;;;;6.30;1.40;;;;;;;5.19;87.49;99111.77;109539;1253;67977;-71
2023/01/14 05:56:37;;;;;;;8.40;1.90;;;;;;;5.14;87.18;99114.09;109525;1253;72422;-72
2023/01/14 05:59:25;;;;;;;6.00;1.40;;;;;;;5.08;87.21;99122.73;109574;1253;57668;-72
2023/01/14 06:08:26;;;;;;;7.30;1.40;;;;;;;5.02;87.70;99140.05;109543;1253;67189;-72
2023/01/14 06:11:14;;;;;;;7.10;1.50;;;;;;;5.00;88.05;99142.50;109554;1255;73712;-74
2023/01/14 06:14:03;;;;;;;8.50;1.60;;;;;;;4.97;87.97;99146.03;109526;1253;57279;-70
2023/01/14 06:16:52;;;;;;;6.90;1.50;;;;;;;4.96;88.47;99150.66;109393;1252;60007;-71
2023/01/14 06:19:39;;;;;;;9.30;1.30;;;;;;;4.98;88.63;99158.30;109537;1252;73180;-73
2023/01/14 06:22:27;;;;;;;5.90;1.20;;;;;;;4.99;88.94;99159.80;109541;1253;65335;-73
2023/01/14 06:25:15;;;;;;;8.20;1.50;;;;;;;4.98;88.58;99160.89;109493;1252;72468;-71
2023/01/14 06:28:03;;;;;;;8.60;1.90;;;;;;;4.97;88.62;99164.52;109543;1252;59457;-71
2023/01/14 06:30:51;;;;;;;9.40;1.60;;;;;;;4.94;89.04;99168.20;109553;1252;58718;-70
2023/01/14 06:33:40;;;;;;;10.10;2.00;;;;;;;4.94;89.15;99174.16;109600;1252;72828;-70
2023/01/14 06:36:29;;;;;;;8.20;1.80;;;;;;;4.95;89.33;99184.11;109559;1252;68072;-71
2023/01/14 06:39:18;;;;;;;9.20;1.80;;;;;;;4.96;89.53;99186.70;109515;1253;72565;-71
2023/01/14 06:42:06;;;;;;;6.50;1.40;;;;;;;4.98;89.88;99198.69;109631;1252;57381;-72
2023/01/14 06:44:53;;;;;;;7.20;1.80;;;;;;;4.98;89.99;99201.73;109556;1252;58399;-74
2023/01/14 06:47:41;;;;;;;5.90;1.20;;;;;;;4.94;90.41;99206.34;109578;1252;72199;-71
2023/01/14 06:50:29;;;;;;;6.60;1.40;;;;;;;4.90;90.64;99207.16;109524;1252;68735;-72
2023/01/14 06:53:18;;;;;;;7.50;1.70;;;;;;;4.85;91.10;99208.70;109427;1253;72843;-72
2023/01/14 06:56:10;;;;;;;5.10;1.10;;;;;;;4.84;91.45;99207.24;109529;1253;57337;-71
2023/01/14 06:58:57;;;;;;;5.80;1.20;;;;;;;4.82;91.68;99211.55;109491;1253;59169;-73
2023/01/14 07:01:45;;;;;;;7.60;1.40;;;;;;;4.82;92.07;99214.02;109495;1256;72761;-74
2023/01/14 07:04:34;;;;;;;6.90;1.80;;;;;;;4.82;92.18;99215.80;109507;1254;69020;-72
2023/01/14 07:07:21;;;;;;;8.90;1.90;;;;;;;4.79;92.86;99226.18;109459;1252;73322;-72
2023/01/14 07:10:09;;;;;;;10.10;2.30;;;;;;;4.78;93.02;99229.56;109506;1252;57862;-72
2023/01/14 07:12:58;;;;;;;9.80;2.30;;;;;;;4.75;94.05;99229.59;109526;1253;59452;-74
2023/01/14 07:15:47;;;;;;;13.70;2.70;;;;;;;4.74;94.15;99233.17;109564;1254;72548;-73
2023/01/14 07:18:34;;;;;;;10.60;2.60;;;;;;;4.74;94.43;99234.19;108779;1252;1002401;-75
2023/01/14 07:21:22;;;;;;;11.90;3.00;;;;;;;4.76;93.96;99244.25;109504;1254;72658;-73
2023/01/14 07:24:11;;;;;;;11.80;2.20;;;;;;;4.80;93.96;99249.85;109458;1254;60064;-72
2023/01/14 07:26:59;;;;;;;11.40;2.40;;;;;;;4.84;93.52;99249.77;109479;1253;60361;-72
2023/01/14 07:29:47;;;;;;;10.70;2.30;;;;;;;4.87;92.87;99263.77;109452;1253;73211;-71
2023/01/14 07:32:35;;;;;;;12.00;2.70;;;;;;;4.91;92.32;99264.94;109494;1254;66944;-73
2023/01/14 07:35:24;;;;;;;11.30;2.20;;;;;;;4.97;91.97;99266.95;109443;1254;72899;-72
2023/01/14 07:38:12;;;;;;;8.80;2.10;;;;;;;5.03;91.59;99274.52;109498;1253;58584;-72
2023/01/14 07:40:59;;;;;;;10.40;2.00;;;;;;;5.04;91.25;99274.79;109460;1253;60281;-74
2023/01/14 07:43:49;;;;;;;8.30;1.80;;;;;;;5.08;91.11;99273.45;109471;1253;73151;-72
2023/01/14 07:46:36;;;;;;;11.10;2.30;;;;;;;5.12;90.86;99274.94;109460;1253;66353;-72
2023/01/14 07:49:25;;;;;;;13.40;3.10;;;;;;;5.20;90.65;99276.55;109451;1253;71481;-75
2023/01/14 07:52:13;;;;;;;11.60;2.70;;;;;;;5.23;90.32;99283.48;109443;1252;59576;-72
2023/01/14 07:55:01;;;;;;;12.00;2.60;;;;;;;5.28;90.39;99279.16;109507;1256;60103;-72
2023/01/14 07:57:49;;;;;;;9.70;2.40;;;;;;;5.36;89.40;99281.40;109417;1252;72059;-73
2023/01/14 08:00:37;;;;;;;10.80;2.50;;;;;;;5.43;89.27;99286.05;109508;1253;67772;-72
2023/01/14 08:03:25;;;;;;;9.90;2.10;;;;;;;5.45;89.07;99281.70;109585;1254;72768;-71
2023/01/14 08:06:13;;;;;;;9.70;2.30;;;;;;;5.48;88.73;99286.93;109510;1253;58556;-73
2023/01/14 08:09:03;;;;;;;10.60;2.50;;;;;;;5.53;88.35;99291.50;109571;1252;60392;-72
2023/01/14 08:11:53;;;;;;;11.70;2.50;;;;;;;5.61;87.86;99294.98;109537;1252;71651;-76
2023/01/14 08:14:40;;;;;;;10.00;2.10;;;;;;;5.80;87.21;99301.98;109563;1253;68810;-74
2023/01/14 08:17:28;;;;;;;10.40;2.60;;;;;;;6.00;86.58;99301.48;109532;1256;71220;-71
2023/01/14 08:20:22;;;;;;;9.70;2.30;;;;;;;6.21;85.60;99304.74;109483;1252;57986;-71
2023/01/14 08:23:09;;;;;;;11.60;2.40;;;;;;;6.46;83.73;99302.04;108830;1253;1002473;-71
2023/01/14 08:26:13;;;;;;;9.30;1.80;;;;;;;6.62;83.36;99302.69;109535;1252;73733;-71
2023/01/14 08:29:00;;;;;;;7.90;1.90;;;;;;;6.95;81.22;99305.38;109557;1251;67713;-71
2023/01/14 08:31:59;;;;;;;7.00;2.00;;;;;;;7.22;79.95;99304.23;109504;1253;73403;-71
2023/01/14 08:34:46;;;;;;;9.10;1.70;;;;;;;7.89;77.94;99301.70;109530;1253;60521;-71
2023/01/14 08:37:35;;;;;;;9.70;1.90;;;;;;;9.09;72.74;99301.48;109553;1254;61396;-70
2023/01/14 08:40:23;;;;;;;9.10;2.00;;;;;;;8.90;70.27;99300.23;109601;1254;71657;-72
2023/01/14 08:43:10;;;;;;;6.70;1.80;;;;;;;8.27;72.05;99312.30;109529;1253;67309;-71
2023/01/14 08:45:59;;;;;;;7.60;2.10;;;;;;;7.84;73.81;99313.92;109485;1254;72776;-72
2023/01/14 08:48:47;;;;;;;9.30;1.90;;;;;;;7.41;75.27;99321.70;109530;1253;58219;-75
2023/01/14 08:51:35;;;;;;;9.20;2.20;;;;;;;7.12;76.98;99331.08;109501;1254;59451;-75
2023/01/14 08:54:23;;;;;;;8.30;2.60;;;;;;;6.98;77.80;99329.15;109531;1252;72822;-70
2023/01/14 08:57:11;;;;;;;23.80;2.70;;;;;;;6.80;78.48;99328.19;109480;1254;66303;-67
2023/01/14 08:59:58;;;;;;;8.30;1.80;;;;;;;6.56;79.45;99333.59;109460;1253;72451;-69
2023/01/14 09:02:46;;;;;;;9.80;1.80;;;;;;;6.39;81.05;99336.62;109461;1254;59765;-72
2023/01/14 09:05:35;;;;;;;9.30;2.30;;;;;;;6.41;81.48;99341.21;109531;1252;59143;-72
2023/01/14 09:18:07;;;;;;;11.20;2.60;;;;;;;6.41;82.10;99366.05;109289;1252;58062;-69
2023/01/14 09:20:56;;;;;;;8.40;2.20;;;;;;;6.34;82.84;99373.98;109276;1254;61058;-67
2023/01/14 09:23:43;;;;;;;10.70;3.20;;;;;;;6.35;83.54;99375.60;109471;1254;72691;-73
2023/01/14 09:26:31;;;;;;;12.60;3.60;;;;;;;6.36;83.85;99372.78;109478;1253;67741;-71
2023/01/14 09:29:20;;;;;;;8.90;2.90;;;;;;;6.87;84.27;99375.42;109520;1253;71689;-71
2023/01/14 09:32:14;;;;;;;10.80;3.20;;;;;;;8.53;79.93;99370.17;109496;1252;58174;-73
2023/01/14 09:35:02;;;;;;;9.70;3.20;;;;;;;9.30;74.62;99367.52;109373;1253;58845;-70
2023/01/14 09:37:49;;;;;;;10.00;3.00;;;;;;;9.35;71.82;99373.95;109514;1252;74131;-72
2023/01/14 09:40:40;;;;;;;9.10;3.10;;;;;;;8.89;72.88;99372.83;109493;1253;68548;-73
2023/01/14 09:43:30;;;;;;;9.40;3.00;;;;;;;8.42;73.77;99377.83;109481;1253;73424;-73
2023/01/14 09:46:28;;;;;;;11.40;2.90;;;;;;;8.07;74.95;99384.98;109489;1253;59424;-71
2023/01/14 09:49:24;;;;;;;9.20;2.90;;;;;;;7.85;75.90;99386.15;109505;1253;60393;-71
2023/01/14 09:52:35;;;;;;;9.50;2.80;;;;;;;7.63;76.80;99387.46;109494;1254;71887;-73
2023/01/14 09:55:39;;;;;;;9.80;2.90;;;;;;;7.38;77.48;99394.59;109579;1253;66367;-68
2023/01/14 09:58:39;;;;;;;8.20;2.70;;;;;;;7.23;78.88;99389.52;109474;1253;71656;-69
2023/01/14 10:01:48;;;;;;;9.50;2.80;;;;;;;7.08;80.03;99392.79;109319;1252;59004;-69
2023/01/14 10:04:47;;;;;;;9.60;2.70;;;;;;;6.99;81.28;99390.63;109495;1253;59524;-67
2023/01/14 10:07:36;;;;;;;10.20;3.10;;;;;;;7.02;81.74;99395.50;109437;1253;73030;-69
2023/01/14 10:10:35;;;;;;;9.20;2.90;;;;;;;7.10;81.78;99397.20;109487;1252;66185;-70
2023/01/14 10:13:32;;;;;;;9.10;2.80;;;;;;;7.12;80.73;99398.29;109400;1253;72617;-67
2023/01/14 10:16:37;;;;;;;11.70;3.10;;;;;;;7.13;80.71;99395.90;109473;1253;59254;-74
2023/01/14 10:19:48;;;;;;;9.20;2.80;;;;;;;7.02;80.67;99403.95;109441;1253;61653;-73
2023/01/14 10:22:44;;;;;;;9.50;3.10;;;;;;;6.91;80.56;99407.05;109496;1252;72855;-73
2023/01/14 10:25:31;;;;;;;11.00;3.30;;;;;;;6.80;80.60;99402.05;109485;1253;67999;-75
2023/01/14 10:28:30;;;;;;;9.60;3.10;;;;;;;6.76;80.96;99406.38;109460;1253;72840;-72
2023/01/14 10:31:32;;;;;;;10.70;3.20;;;;;;;6.77;80.90;99406.48;109364;1253;58123;-74
2023/01/14 10:34:47;;;;;;;9.80;2.80;;;;;;;6.79;80.61;99404.19;109450;1253;60088;-70
2023/01/14 10:37:35;;;;;;;9.40;2.40;;;;;;;6.85;79.45;99401.11;109486;1253;72723;-71
2023/01/14 10:40:26;;;;;;;9.20;2.80;;;;;;;6.92;79.39;99402.55;109500;1253;67652;-69
2023/01/14 10:43:47;;;;;;;11.60;4.20;;;;;;;6.91;78.70;99402.61;109456;1253;73546;-72
2023/01/14 10:46:36;;;;;;;10.50;3.20;;;;;;;6.82;79.20;99398.90;109456;1253;57621;-70
2023/01/14 10:49:39;;;;;;;12.60;3.40;;;;;;;6.76;79.35;99402.70;109472;1253;60450;-66
2023/01/14 10:52:33;;;;;;;10.80;3.10;;;;;;;6.98;79.08;99398.75;109441;1253;71730;-69
2023/01/14 10:55:30;;;;;;;9.60;3.20;;;;;;;7.45;77.49;99399.41;109450;1253;66603;-65
2023/01/14 10:58:41;;;;;;;9.60;2.80;;;;;;;8.19;75.42;99403.09;109395;1253;70756;-71
2023/01/14 11:01:39;;;;;;;9.60;2.60;;;;;;;8.64;72.61;99393.36;109333;1253;57643;-76
2023/01/14 11:04:33;;;;;;;8.40;2.70;;;;;;;9.01;72.61;99383.52;109463;1253;60114;-74
2023/01/14 11:07:38;;;;;;;10.20;2.70;;;;;;;9.49;69.87;99374.94;109452;1253;71922;-70
2023/01/14 11:10:31;;;;;;;8.90;2.40;;;;;;;9.24;69.11;99370.34;109451;1252;67674;-73
2023/01/14 11:13:25;;;;;;;9.40;2.90;;;;;;;8.97;69.90;99379.06;109457;1252;72750;-69
2023/01/14 11:16:25;;;;;;;8.00;2.50;;;;;;;8.78;70.17;99382.58;109442;1253;58001;-71
2023/01/14 11:19:16;;;;;;;9.70;3.00;;;;;;;8.73;70.54;99382.45;109439;1252;60360;-72
2023/01/14 11:22:05;;;;;;;7.80;2.20;;;;;;;8.40;70.86;99389.08;109466;1252;73106;-73
2023/01/14 11:24:54;;;;;;;9.90;2.40;;;;;;;7.99;72.23;99398.64;109484;1253;67658;-65
2023/01/14 11:27:47;;;;;;;7.70;2.00;;;;;;;7.83;73.86;99394.70;109432;1253;72653;-77
2023/01/14 11:30:35;;;;;;;8.70;2.50;;;;;;;7.68;74.82;99387.92;109229;1252;59673;-71
2023/01/14 11:33:26;;;;;;;7.30;2.00;;;;;;;8.31;73.33;99386.43;109499;1253;58743;-73
2023/01/14 11:36:34;;;;;;;7.70;2.30;;;;;;;8.22;72.69;99376.53;109465;1253;73199;-73
2023/01/14 11:39:22;;;;;;;6.80;2.20;;;;;;;8.19;73.12;99379.77;109493;1252;67577;-72
2023/01/14 11:42:40;;;;;;;7.80;2.80;;;;;;;8.57;71.42;99370.27;109339;1253;72721;-73
2023/01/14 11:45:28;;;;;;;9.50;2.50;;;;;;;8.40;71.00;99366.31;109406;1252;57353;-73
2023/01/14 11:48:28;;;;;;;9.50;2.60;;;;;;;8.13;71.17;99371.27;109373;1256;60812;-72
2023/01/14 11:51:21;;;;;;;7.80;2.30;;;;;;;7.82;71.99;99377.14;109488;1252;73118;-72
2023/01/14 11:54:19;;;;;;;7.70;2.20;;;;;;;7.44;72.82;99388.33;109418;1252;66929;-71
2023/01/14 11:57:16;;;;;;;9.80;2.30;;;;;;;7.13;73.99;99390.08;109412;1253;72621;-68
2023/01/14 12:00:08;;;;;;;6.50;2.00;;;;;;;6.92;75.05;99398.52;109421;1252;57672;-71
2023/01/14 12:03:09;;;;;;;8.70;2.30;;;;;;;6.75;75.77;99398.88;109375;1253;60459;-69
2023/01/14 12:06:03;;;;;;;6.90;2.10;;;;;;;6.60;76.41;99399.91;109384;1253;73114;-68
2023/01/14 12:09:01;;;;;;;8.10;2.20;;;;;;;6.54;76.57;99398.42;109452;1252;68217;-74
2023/01/14 12:12:03;;;;;;;6.40;2.10;;;;;;;6.69;76.72;99392.96;109426;1252;72438;-70
2023/01/14 12:18:12;;;;;;;6.60;1.90;;;;;;;9.14;68.22;99372.52;109436;1252;60302;-71
2023/01/14 12:21:04;;;;;;;8.50;2.20;;;;;;;8.80;67.20;99378.45;109403;1252;73604;-72
2023/01/14 12:24:03;;;;;;;6.90;2.30;;;;;;;8.44;68.32;99388.95;108620;1253;1002318;-72
2023/01/14 12:26:55;;;;;;;7.80;2.10;;;;;;;8.15;69.34;99389.97;109403;1252;71757;-71
2023/01/14 12:29:45;;;;;;;8.40;2.30;;;;;;;7.91;70.74;99392.55;109397;1253;57839;-68
2023/01/14 12:32:33;;;;;;;6.70;2.40;;;;;;;7.98;71.58;99388.62;109404;1252;60614;-66
2023/01/14 12:35:23;;;;;;;7.40;2.20;;;;;;;7.82;71.89;99385.98;109462;1252;73522;-66
2023/01/14 12:45:46;;;;;;;7.90;2.10;;;;;;;6.97;75.89;99371.89;108142;1259;1003211;-71
2023/01/14 12:48:34;;;;;;;8.30;2.50;;;;;;;6.79;76.25;99371.45;108942;1259;60171;-66
2023/01/14 12:51:29;;;;;;;9.80;2.50;;;;;;;6.69;76.16;99378.55;108955;1259;73278;-71
2023/01/14 12:54:29;;;;;;;8.10;2.20;;;;;;;6.59;75.98;99373.05;108990;1259;67664;-70
2023/01/14 12:57:21;;;;;;;8.30;2.00;;;;;;;6.49;75.89;99371.62;108895;1259;73739;-69
2023/01/14 13:00:27;;;;;;;8.90;2.10;;;;;;;6.44;76.15;99380.48;108912;1259;58096;-68
2023/01/14 13:03:24;;;;;;;7.10;2.50;;;;;;;6.38;77.00;99379.06;108889;1259;60327;-70
2023/01/14 13:06:22;;;;;;;7.60;1.90;;;;;;;6.39;77.40;99387.13;108952;1259;72713;-73
2023/01/14 13:09:23;;;;;;;9.20;2.30;;;;;;;6.40;78.77;99379.16;108907;1259;66978;-74
2023/01/14 13:12:29;;;;;;;9.90;2.40;;;;;;;6.44;79.80;99377.80;108765;1259;72338;-71
2023/01/14 13:15:37;;;;;;;6.60;2.10;;;;;;;6.40;80.27;99377.59;109094;1252;57955;-69
2023/01/14 13:18:35;;;;;;;7.40;1.70;;;;;;;6.34;81.08;99372.50;108944;1258;58698;-71
2023/01/14 13:21:59;;;;;;;7.00;1.70;;;;;;;6.25;81.63;99372.63;108956;1258;72856;-71
2023/01/14 13:24:47;;;;;;;6.50;2.00;;;;;;;6.16;82.16;99370.45;108999;1258;67726;-67
2023/01/14 13:27:38;;;;;;;7.30;1.90;;;;;;;6.09;82.74;99369.86;108988;1259;72423;-70
2023/01/14 13:30:34;;;;;;;10.60;2.80;;;;;;;6.05;83.32;99372.23;108947;1259;59433;-70
2023/01/14 13:33:28;;;;;;;6.90;2.00;;;;;;;5.97;84.33;99366.50;109015;1258;60080;-76
2023/01/14 13:36:19;;;;;;;7.10;1.90;;;;;;;5.91;84.48;99366.48;108921;1258;74170;-72
2023/01/14 13:39:10;;;;;;;8.00;2.10;;;;;;;5.87;84.60;99363.14;108953;1259;66373;-75
2023/01/14 13:42:27;;;;;;;8.40;2.20;;;;;;;5.76;85.00;99363.68;108946;1258;72837;-72
2023/01/14 13:45:29;;;;;;;7.50;1.70;;;;;;;5.62;85.01;99358.48;108831;1259;57382;-73
2023/01/14 13:48:29;;;;;;;7.00;1.70;;;;;;;5.52;85.68;99359.85;108980;1258;58935;-72
2023/01/14 13:51:19;;;;;;;8.20;2.00;;;;;;;5.50;85.55;99352.75;108894;1259;72892;-68
2023/01/14 13:54:10;;;;;;;6.10;2.00;;;;;;;5.49;85.85;99348.08;108993;1259;66464;-69
2023/01/14 13:57:30;;;;;;;7.20;2.20;;;;;;;5.45;85.89;99349.45;109479;1253;70172;-67
2023/01/14 14:00:20;;;;;;;8.70;2.40;;;;;;;5.42;86.16;99352.81;109467;1252;57579;-70
2023/01/14 14:03:35;;;;;;;8.60;2.70;;;;;;;5.39;86.09;99353.86;109471;1252;60477;-72
2023/01/14 14:06:43;;;;;;;10.90;3.10;;;;;;;5.37;86.30;99347.99;109459;1253;74139;-74
2023/01/14 14:09:32;;;;;;;11.40;3.60;;;;;;;5.36;86.64;99350.20;108937;1259;68159;-74
2023/01/14 14:15:44;;;;;;;10.00;2.90;;;;;;;5.27;87.28;99342.70;108895;1259;57751;-67
2023/01/14 14:18:38;;;;;;;9.20;3.10;;;;;;;5.22;87.69;99340.73;108904;1259;60475;-71